Time;durP1;ratioP1;P1;durP2;ratioP2;P2;SDS_P1;SDS_P2;PMS_P1;PMS_P2;Temp;Humidity;BMP_temperature;BMP_pressure;BME280_temperature;BME280_humidity;BME280_pressure;Samples;Min_cycle;Max_cycle;Signal;HPM_P1;HPM_P2
2023/06/01 00:01:37;;;;;;;13.65;8.77;;;11.00;99.90;;;;;;5049723;28;20076;-77
2023/06/01 00:04:03;;;;;;;12.60;8.55;;;11.00;99.90;;;;;;5045469;28;20491;-77
2023/06/01 00:06:30;;;;;;;13.20;8.68;;;11.00;99.90;;;;;;5035227;28;20029;-78
2023/06/01 00:08:56;;;;;;;13.50;8.35;;;11.00;99.90;;;;;;5036948;28;20048;-77
2023/06/01 00:11:22;;;;;;;15.23;9.15;;;11.00;99.90;;;;;;5041291;28;20134;-77
2023/06/01 00:13:49;;;;;;;15.60;9.23;;;11.00;99.90;;;;;;5050215;28;20033;-77
2023/06/01 00:16:15;;;;;;;14.52;8.90;;;11.00;99.90;;;;;;5049570;28;20112;-76
2023/06/01 00:18:41;;;;;;;12.45;8.52;;;11.00;99.90;;;;;;5033580;28;20047;-77
2023/06/01 00:21:07;;;;;;;15.25;9.05;;;11.00;99.90;;;;;;5027243;28;20045;-77
2023/06/01 00:23:33;;;;;;;15.45;9.00;;;11.00;99.90;;;;;;5039094;28;20052;-77
2023/06/01 00:26:00;;;;;;;13.60;9.65;;;11.00;99.90;;;;;;5043492;28;20300;-77
2023/06/01 00:28:26;;;;;;;16.38;9.52;;;11.00;99.90;;;;;;5047015;28;20053;-78
2023/06/01 00:30:52;;;;;;;14.07;9.27;;;10.90;99.90;;;;;;5049110;28;20041;-77
2023/06/01 00:33:19;;;;;;;13.88;9.50;;;11.00;99.90;;;;;;5049554;28;20082;-77
2023/06/01 00:35:45;;;;;;;14.65;9.45;;;11.00;99.90;;;;;;5049214;28;20037;-77
2023/06/01 00:38:11;;;;;;;15.27;9.65;;;11.00;99.90;;;;;;5043167;28;20125;-77
2023/06/01 00:40:36;;;;;;;15.13;10.13;;;11.00;99.90;;;;;;5056981;28;20128;-77
2023/06/01 00:43:02;;;;;;;15.63;8.95;;;11.00;99.90;;;;;;5049310;28;20117;-77
2023/06/01 00:45:28;;;;;;;13.82;8.38;;;11.00;99.90;;;;;;5024807;28;20072;-77
2023/06/01 00:47:54;;;;;;;13.52;8.45;;;11.00;99.90;;;;;;5039062;28;20456;-78
2023/06/01 00:50:21;;;;;;;13.00;8.48;;;11.00;99.90;;;;;;5047364;28;20045;-77
2023/06/01 00:52:49;;;;;;;15.35;8.43;;;11.00;99.90;;;;;;5028244;28;20064;-77
2023/06/01 00:55:15;;;;;;;11.98;8.52;;;10.90;99.90;;;;;;5054261;28;20041;-77
2023/06/01 00:57:43;;;;;;;15.82;9.00;;;10.90;99.90;;;;;;5053642;28;20475;-77
2023/06/01 01:00:10;;;;;;;16.90;9.30;;;10.90;99.90;;;;;;5036561;28;20056;-76
2023/06/01 01:02:40;;;;;;;14.75;9.45;;;10.90;99.90;;;;;;5052503;28;20364;-77
2023/06/01 01:05:10;;;;;;;16.90;10.00;;;10.90;99.90;;;;;;5054757;28;20155;-78
2023/06/01 01:08:04;;;;;;;12.75;9.30;;;10.90;99.90;;;;;;5041924;28;20397;-77
2023/06/01 01:10:41;;;;;;;14.95;9.75;;;10.90;99.90;;;;;;5041222;28;20128;-77
2023/06/01 01:13:52;;;;;;;15.20;9.70;;;10.90;99.90;;;;;;5053713;28;20045;-76
2023/06/01 01:16:29;;;;;;;13.15;9.75;;;10.80;99.90;;;;;;5044337;28;20073;-77
2023/06/01 01:19:21;;;;;;;14.90;10.05;;;10.80;99.90;;;;;;5019681;28;20483;-77
2023/06/01 01:21:57;;;;;;;13.02;9.40;;;10.80;99.90;;;;;;5036243;28;20041;-77
2023/06/01 01:24:48;;;;;;;13.65;10.20;;;10.80;99.90;;;;;;5044873;28;20128;-77
2023/06/01 01:27:31;;;;;;;13.75;9.80;;;10.80;99.90;;;;;;5029508;28;20041;-77
2023/06/01 01:30:04;;;;;;;16.67;10.60;;;10.90;99.90;;;;;;5021851;28;20037;-77
2023/06/01 01:32:29;;;;;;;;;;;10.80;99.90;;;;;;5049679;28;20421;-78
2023/06/01 01:34:56;;;;;;;15.82;10.02;;;10.70;99.90;;;;;;5063539;28;19917;-77
2023/06/01 01:37:22;;;;;;;13.63;11.02;;;10.70;99.90;;;;;;5048589;28;20044;-77
2023/06/01 01:39:48;;;;;;;20.98;11.15;;;10.80;99.90;;;;;;5050753;28;20119;-77
2023/06/01 01:42:13;;;;;;;16.20;10.43;;;10.80;99.90;;;;;;5033981;28;20132;-78
2023/06/01 01:44:39;;;;;;;16.23;11.27;;;10.80;99.90;;;;;;5027634;28;20094;-77
2023/06/01 01:47:27;;;;;;;15.20;11.52;;;10.80;99.90;;;;;;5046669;28;20045;-77
2023/06/01 01:49:59;;;;;;;14.10;10.52;;;10.80;99.90;;;;;;5033736;28;20037;-77
2023/06/01 01:52:38;;;;;;;13.02;10.35;;;10.80;99.90;;;;;;5052524;28;20032;-77
2023/06/01 01:55:06;;;;;;;17.13;10.85;;;10.80;99.90;;;;;;5046437;28;20495;-77
2023/06/01 01:57:34;;;;;;;16.17;11.35;;;10.80;99.90;;;;;;5040821;28;20077;-77
2023/06/01 02:00:00;;;;;;;14.90;10.55;;;10.70;99.90;;;;;;5043646;28;20041;-77
2023/06/01 02:02:26;;;;;;;17.27;11.18;;;10.80;99.90;;;;;;5042822;28;20078;-77
2023/06/01 02:04:52;;;;;;;14.18;10.93;;;10.80;99.90;;;;;;5051548;28;20436;-77
2023/06/01 02:07:17;;;;;;;17.35;11.40;;;10.80;99.90;;;;;;5056914;28;20168;-77
2023/06/01 02:09:43;;;;;;;14.30;10.25;;;10.70;99.90;;;;;;5055663;28;20040;-77
2023/06/01 02:12:09;;;;;;;15.98;9.85;;;10.80;99.90;;;;;;5052862;28;20127;-77
2023/06/01 02:14:35;;;;;;;16.05;11.00;;;10.70;99.90;;;;;;5056292;28;20042;-77
2023/06/01 02:17:00;;;;;;;14.70;9.60;;;10.80;99.90;;;;;;5052583;28;20044;-77
2023/06/01 02:19:27;;;;;;;18.25;10.45;;;10.80;99.90;;;;;;5056886;28;20037;-78
2023/06/01 02:21:53;;;;;;;17.02;10.10;;;10.80;99.90;;;;;;5062588;28;20079;-77
2023/06/01 02:24:19;;;;;;;15.05;9.93;;;10.70;99.90;;;;;;5048463;28;20075;-78
2023/06/01 02:26:51;;;;;;;16.55;10.93;;;10.70;99.90;;;;;;5032581;28;20044;-79
2023/06/01 02:29:19;;;;;;;17.90;10.27;;;10.80;99.90;;;;;;5036502;28;20122;-77
2023/06/01 02:31:45;;;;;;;12.82;9.88;;;10.90;99.90;;;;;;5035143;28;20041;-77
2023/06/01 02:34:11;;;;;;;13.65;9.98;;;10.80;99.90;;;;;;5027267;28;20128;-77
2023/06/01 02:36:36;;;;;;;16.60;9.90;;;10.70;99.90;;;;;;5035205;28;20036;-78
2023/06/01 02:39:02;;;;;;;17.90;10.93;;;10.70;99.90;;;;;;5051771;28;20037;-78
2023/06/01 02:41:27;;;;;;;15.32;10.00;;;10.70;99.90;;;;;;5051154;28;20073;-77
2023/06/01 02:43:53;;;;;;;16.52;11.18;;;10.80;99.90;;;;;;5050374;28;20045;-78
2023/06/01 02:46:19;;;;;;;14.90;9.75;;;10.70;99.90;;;;;;5026694;28;20133;-77
2023/06/01 02:48:45;;;;;;;16.98;10.05;;;10.70;99.90;;;;;;5035204;28;20041;-77
2023/06/01 02:51:11;;;;;;;14.77;9.57;;;10.70;99.90;;;;;;5051243;28;20041;-77
2023/06/01 02:53:42;;;;;;;13.23;9.65;;;10.80;99.90;;;;;;5055854;28;20047;-78
2023/06/01 02:56:07;;;;;;;14.82;10.45;;;10.70;99.90;;;;;;5068387;28;20037;-77
2023/06/01 02:58:33;;;;;;;14.30;9.07;;;10.70;99.90;;;;;;5057701;28;20041;-78
2023/06/01 03:00:59;;;;;;;11.73;9.02;;;10.70;99.90;;;;;;5029640;28;20064;-77
2023/06/01 03:03:25;;;;;;;16.08;9.55;;;10.70;99.90;;;;;;5031123;28;20075;-77
2023/06/01 03:05:51;;;;;;;13.57;9.20;;;10.70;99.90;;;;;;5051136;28;20041;-77
2023/06/01 03:08:17;;;;;;;12.60;9.63;;;10.70;99.90;;;;;;5068420;28;20041;-78
2023/06/01 03:10:43;;;;;;;14.82;9.25;;;10.70;99.90;;;;;;5063152;28;20416;-78
2023/06/01 03:13:09;;;;;;;14.23;8.90;;;10.70;99.90;;;;;;5030717;28;20171;-77
2023/06/01 03:15:37;;;;;;;14.57;10.13;;;10.60;99.90;;;;;;5031289;28;20128;-78
2023/06/01 03:18:03;;;;;;;12.98;9.02;;;10.70;99.90;;;;;;5031043;28;20123;-77
2023/06/01 03:20:29;;;;;;;13.60;9.65;;;10.60;99.90;;;;;;5013715;28;20041;-77
2023/06/01 03:22:54;;;;;;;15.57;9.63;;;10.60;99.90;;;;;;5014025;28;20041;-77
2023/06/01 03:25:20;;;;;;;14.27;9.50;;;10.70;99.90;;;;;;4998953;28;20140;-77
2023/06/01 03:27:46;;;;;;;13.77;9.68;;;10.60;99.90;;;;;;4995284;28;20069;-77
2023/06/01 03:30:12;;;;;;;14.90;9.98;;;10.60;99.90;;;;;;5020847;28;20037;-77
2023/06/01 03:32:41;;;;;;;15.43;9.52;;;10.60;99.90;;;;;;5030948;28;20484;-78
2023/06/01 03:35:08;;;;;;;14.50;9.27;;;10.60;99.90;;;;;;5031071;28;20091;-77
2023/06/01 03:37:45;;;;;;;13.90;9.65;;;10.60;99.90;;;;;;5029463;28;20533;-76
2023/06/01 03:40:11;;;;;;;12.88;9.38;;;10.70;99.90;;;;;;5029037;28;20041;-78
2023/06/01 03:42:46;;;;;;;12.50;9.32;;;10.70;99.90;;;;;;5004345;28;20042;-77
2023/06/01 03:45:12;;;;;;;13.60;8.82;;;10.70;99.90;;;;;;5011481;28;20400;-77
2023/06/01 03:47:38;;;;;;;13.68;9.65;;;10.70;99.90;;;;;;5011007;28;20041;-77
2023/06/01 03:50:06;;;;;;;14.10;8.75;;;10.70;99.90;;;;;;5027544;28;20076;-77
2023/06/01 03:52:32;;;;;;;14.35;9.75;;;10.70;99.90;;;;;;5007711;28;20069;-77
2023/06/01 03:55:00;;;;;;;13.10;8.93;;;10.70;99.90;;;;;;5030705;28;20492;-77
2023/06/01 03:57:25;;;;;;;13.90;8.52;;;10.70;99.90;;;;;;5014052;28;20075;-77
2023/06/01 03:59:51;;;;;;;14.35;8.63;;;10.70;99.90;;;;;;5028332;28;20438;-77
2023/06/01 04:02:18;;;;;;;16.00;8.85;;;10.70;99.90;;;;;;5022516;28;20048;-77
2023/06/01 04:04:47;;;;;;;16.48;10.52;;;10.70;99.90;;;;;;5014148;28;20042;-77
2023/06/01 04:07:21;;;;;;;13.40;8.45;;;10.70;99.90;;;;;;5030447;28;20116;-77
2023/06/01 04:09:47;;;;;;;15.55;8.32;;;10.80;99.90;;;;;;5032064;28;20041;-77
2023/06/01 04:12:13;;;;;;;12.48;7.78;;;10.80;99.90;;;;;;5035110;28;20041;-77
2023/06/01 04:14:40;;;;;;;12.02;7.53;;;10.80;99.90;;;;;;5049228;28;20045;-78
2023/06/01 04:17:06;;;;;;;11.27;7.70;;;10.80;99.90;;;;;;5022634;28;20484;-77
2023/06/01 04:19:33;;;;;;;11.82;7.55;;;10.80;99.90;;;;;;5045962;28;20045;-77
2023/06/01 04:21:59;;;;;;;9.52;7.15;;;10.80;99.90;;;;;;5033658;28;20128;-77
2023/06/01 04:24:25;;;;;;;11.90;7.78;;;10.80;99.90;;;;;;5037827;28;20235;-77
2023/06/01 04:26:50;;;;;;;10.30;7.45;;;10.90;99.90;;;;;;5034302;28;20102;-77
2023/06/01 04:29:19;;;;;;;11.00;6.95;;;10.90;99.90;;;;;;5021278;28;20495;-77
2023/06/01 04:31:45;;;;;;;13.15;7.90;;;10.90;99.90;;;;;;5045677;28;20041;-77
2023/06/01 04:34:10;;;;;;;12.02;6.78;;;10.90;99.90;;;;;;5022949;28;20044;-77
2023/06/01 04:36:38;;;;;;;10.38;6.65;;;11.00;99.90;;;;;;5034584;28;20038;-77
2023/06/01 04:39:06;;;;;;;9.15;6.90;;;11.00;99.90;;;;;;5045525;28;20041;-77
2023/06/01 04:41:32;;;;;;;10.80;6.50;;;11.00;99.90;;;;;;5027688;28;20041;-77
2023/06/01 04:43:58;;;;;;;9.00;5.75;;;11.00;99.90;;;;;;5030254;28;20243;-77
2023/06/01 04:46:26;;;;;;;9.95;6.63;;;11.00;99.90;;;;;;5053780;28;20072;-77
2023/06/01 04:48:57;;;;;;;9.88;6.55;;;11.10;99.90;;;;;;5042832;28;20406;-77
2023/06/01 04:51:23;;;;;;;9.13;6.10;;;11.10;99.90;;;;;;5052089;28;20553;-76
2023/06/01 04:53:51;;;;;;;9.27;6.43;;;11.10;99.90;;;;;;5045490;28;20418;-76
2023/06/01 04:56:26;;;;;;;10.75;7.00;;;11.10;99.90;;;;;;5021627;28;20029;-77
2023/06/01 04:58:56;;;;;;;10.43;6.68;;;11.10;99.90;;;;;;5059831;28;20044;-77
2023/06/01 05:01:24;;;;;;;9.05;6.78;;;11.20;99.90;;;;;;5051983;28;20040;-77
2023/06/01 05:03:52;;;;;;;11.02;6.97;;;11.20;99.90;;;;;;5045914;28;20098;-77
2023/06/01 05:06:19;;;;;;;10.30;7.22;;;11.20;99.90;;;;;;5052099;28;20037;-77
2023/06/01 05:08:45;;;;;;;8.30;6.43;;;11.30;99.90;;;;;;5045235;28;20088;-77
2023/06/01 05:11:11;;;;;;;9.20;6.97;;;11.30;99.90;;;;;;5042541;28;20504;-77
2023/06/01 05:13:37;;;;;;;14.18;7.47;;;11.40;99.90;;;;;;5023530;28;20041;-77
2023/06/01 05:16:04;;;;;;;10.63;6.43;;;11.40;99.90;;;;;;5026621;28;20385;-77
2023/06/01 05:18:30;;;;;;;12.27;7.30;;;11.40;99.90;;;;;;5030990;28;20116;-76
2023/06/01 05:20:56;;;;;;;9.43;7.45;;;11.50;99.90;;;;;;5026460;28;20060;-77
2023/06/01 05:23:22;;;;;;;10.05;6.60;;;11.50;99.90;;;;;;5066804;28;20480;-77
2023/06/01 05:25:47;;;;;;;10.40;6.22;;;11.50;99.90;;;;;;5028865;28;20049;-77
2023/06/01 05:28:13;;;;;;;10.02;6.10;;;11.50;99.90;;;;;;5029953;28;20037;-78
2023/06/01 05:30:38;;;;;;;9.82;6.32;;;11.60;99.90;;;;;;5031405;28;20033;-77
2023/06/01 05:33:04;;;;;;;10.50;6.13;;;11.60;99.90;;;;;;5032862;28;20128;-76
2023/06/01 05:35:29;;;;;;;10.32;6.28;;;11.60;99.90;;;;;;5015836;28;20076;-77
2023/06/01 05:37:55;;;;;;;9.93;6.68;;;11.60;99.90;;;;;;5030291;28;20038;-77
2023/06/01 05:40:21;;;;;;;10.75;6.70;;;11.60;99.90;;;;;;5000578;28;20034;-77
2023/06/01 05:42:46;;;;;;;11.07;7.15;;;11.70;99.90;;;;;;5009054;28;20412;-77
2023/06/01 05:45:12;;;;;;;10.57;6.40;;;11.70;99.90;;;;;;5016068;28;20087;-77
2023/06/01 05:47:38;;;;;;;11.52;6.38;;;11.80;99.90;;;;;;5065425;28;20427;-77
2023/06/01 05:50:04;;;;;;;11.63;6.65;;;11.70;99.90;;;;;;5024968;28;20044;-77
2023/06/01 05:52:30;;;;;;;10.50;6.65;;;11.80;99.90;;;;;;5031095;28;20049;-78
2023/06/01 05:54:56;;;;;;;9.48;6.60;;;11.80;99.90;;;;;;5032705;28;20117;-77
2023/06/01 05:57:21;;;;;;;10.30;6.38;;;11.80;99.90;;;;;;5015844;28;20403;-77
2023/06/01 05:59:47;;;;;;;10.88;6.93;;;11.80;99.90;;;;;;5007833;28;20045;-77
2023/06/01 06:02:16;;;;;;;8.93;6.40;;;11.90;99.90;;;;;;5049078;28;20448;-76
2023/06/01 06:04:43;;;;;;;10.30;5.85;;;11.90;99.90;;;;;;5015898;28;20037;-77
2023/06/01 06:07:09;;;;;;;9.85;6.10;;;11.90;99.90;;;;;;5064917;28;20068;-77
2023/06/01 06:09:35;;;;;;;11.15;6.63;;;11.90;99.90;;;;;;5067719;28;20076;-77
2023/06/01 06:12:01;;;;;;;10.43;6.10;;;12.00;99.90;;;;;;5032635;28;20135;-78
2023/06/01 06:14:27;;;;;;;28.60;7.32;;;12.10;99.90;;;;;;5035445;28;20069;-79
2023/06/01 06:16:52;;;;;;;9.82;6.57;;;12.10;99.90;;;;;;5065597;28;20476;-78
2023/06/01 06:19:18;;;;;;;11.50;6.22;;;12.20;99.90;;;;;;5029643;28;20041;-77
2023/06/01 06:21:44;;;;;;;10.85;6.25;;;12.30;99.90;;;;;;5028517;28;20071;-78
2023/06/01 06:24:09;;;;;;;11.30;6.68;;;12.30;99.90;;;;;;5030715;28;20042;-77
2023/06/01 06:26:35;;;;;;;10.18;5.93;;;12.40;99.90;;;;;;5032157;28;20114;-78
2023/06/01 06:29:01;;;;;;;8.95;6.15;;;12.50;99.90;;;;;;5031571;28;20037;-78
2023/06/01 06:31:26;;;;;;;11.63;6.55;;;12.60;99.90;;;;;;5031117;28;20045;-78
2023/06/01 06:33:52;;;;;;;10.80;6.15;;;12.70;99.90;;;;;;5031089;28;20036;-77
2023/06/01 06:36:18;;;;;;;9.95;6.25;;;12.70;99.90;;;;;;5048798;28;20045;-78
2023/06/01 06:38:44;;;;;;;12.52;6.63;;;12.70;99.90;;;;;;5031059;28;20029;-78
2023/06/01 06:41:10;;;;;;;10.13;6.05;;;12.80;99.90;;;;;;5025485;28;20124;-76
2023/06/01 06:43:36;;;;;;;10.15;6.35;;;12.60;99.90;;;;;;5030633;28;20033;-78
2023/06/01 06:46:02;;;;;;;9.10;6.70;;;12.60;99.90;;;;;;5011190;28;20091;-77
2023/06/01 06:48:28;;;;;;;11.35;5.90;;;12.70;99.90;;;;;;5009847;28;20045;-77
2023/06/01 06:50:54;;;;;;;12.40;6.15;;;12.70;99.90;;;;;;5031868;28;20057;-76
2023/06/01 06:53:19;;;;;;;10.20;6.35;;;12.80;99.90;;;;;;5027059;28;20064;-78
2023/06/01 06:55:45;;;;;;;10.07;5.95;;;12.90;99.90;;;;;;5023824;28;20030;-77
2023/06/01 06:58:11;;;;;;;13.27;7.15;;;12.90;99.90;;;;;;5031573;28;20034;-77
2023/06/01 07:00:37;;;;;;;11.48;6.72;;;12.80;99.90;;;;;;5031234;28;20033;-77
2023/06/01 07:03:03;;;;;;;11.27;6.72;;;12.90;99.90;;;;;;5014655;28;20037;-79
2023/06/01 07:05:29;;;;;;;8.57;5.88;;;13.00;99.90;;;;;;5032468;28;20105;-78
2023/06/01 07:07:55;;;;;;;9.68;6.43;;;13.10;99.90;;;;;;5024900;28;20499;-80
2023/06/01 07:10:20;;;;;;;10.13;5.88;;;13.20;99.90;;;;;;5043950;28;20041;-78
2023/06/01 07:12:46;;;;;;;9.32;5.88;;;13.30;99.90;;;;;;5049999;28;20126;-78
2023/06/01 07:15:12;;;;;;;9.57;6.30;;;13.40;99.90;;;;;;5027734;28;20033;-78
2023/06/01 07:17:37;;;;;;;9.00;6.35;;;13.40;99.90;;;;;;5049787;28;20043;-78
2023/06/01 07:20:06;;;;;;;9.63;6.22;;;13.50;99.90;;;;;;5034650;28;20132;-78
2023/06/01 07:22:32;;;;;;;9.57;6.80;;;13.50;99.90;;;;;;5025052;28;20061;-78
2023/06/01 07:24:58;;;;;;;11.95;6.75;;;13.60;99.90;;;;;;5031774;28;20103;-78
2023/06/01 07:27:24;;;;;;;10.60;6.55;;;13.70;99.90;;;;;;5034102;28;20498;-78
2023/06/01 07:29:54;;;;;;;12.48;6.43;;;13.80;99.90;;;;;;5052056;28;20118;-78
2023/06/01 07:32:21;;;;;;;8.98;5.43;;;13.80;99.90;;;;;;5047399;28;20128;-78
2023/06/01 07:34:48;;;;;;;7.10;5.32;;;13.80;99.90;;;;;;5032193;28;20415;-78
2023/06/01 07:37:13;;;;;;;9.68;5.75;;;13.90;99.90;;;;;;5039356;28;20112;-78
2023/06/01 07:39:39;;;;;;;8.88;5.70;;;13.90;99.90;;;;;;5048854;28;20471;-78
2023/06/01 07:42:05;;;;;;;9.90;5.10;;;14.00;99.90;;;;;;5051121;28;20044;-78
2023/06/01 07:44:31;;;;;;;10.63;5.80;;;14.10;99.90;;;;;;5040045;28;20041;-78
2023/06/01 07:46:56;;;;;;;9.27;5.53;;;14.10;99.90;;;;;;5050527;28;20095;-78
2023/06/01 07:49:22;;;;;;;10.07;5.55;;;14.20;99.90;;;;;;5049728;28;20491;-79
2023/06/01 07:51:48;;;;;;;9.73;6.28;;;14.30;99.90;;;;;;5065531;28;20040;-78
2023/06/01 07:54:14;;;;;;;7.68;5.72;;;14.20;99.90;;;;;;5027835;28;20033;-78
2023/06/01 07:56:39;;;;;;;10.52;6.32;;;14.10;99.90;;;;;;5050171;28;20082;-78
2023/06/01 07:59:05;;;;;;;9.60;5.88;;;14.10;99.90;;;;;;5044775;28;20029;-78
2023/06/01 08:01:32;;;;;;;10.57;5.82;;;14.20;99.90;;;;;;5032186;28;20041;-79
2023/06/01 08:03:58;;;;;;;8.75;5.30;;;14.30;99.90;;;;;;5047994;28;20063;-78
2023/06/01 08:06:24;;;;;;;11.57;5.35;;;14.40;99.90;;;;;;5049435;28;20495;-78
2023/06/01 08:08:51;;;;;;;9.07;5.30;;;14.40;99.90;;;;;;5050498;28;20044;-76
2023/06/01 08:11:17;;;;;;;7.63;4.85;;;14.40;99.90;;;;;;5106171;22;20044;-77
2023/06/01 08:13:45;;;;;;;8.45;4.55;;;14.70;99.90;;;;;;5084976;28;20105;-79
2023/06/01 08:16:13;;;;;;;7.95;4.05;;;14.80;99.90;;;;;;5096281;28;20043;-78
2023/06/01 08:18:42;;;;;;;8.55;4.63;;;14.90;99.90;;;;;;5075819;28;20031;-79
2023/06/01 08:21:10;;;;;;;6.53;4.05;;;14.90;99.90;;;;;;5079488;28;20036;-79
2023/06/01 08:23:36;;;;;;;9.18;4.43;;;15.00;99.90;;;;;;5062270;28;20042;-79
2023/06/01 08:26:05;;;;;;;8.63;4.47;;;15.10;99.90;;;;;;5056985;28;20121;-79
2023/06/01 08:28:32;;;;;;;10.45;4.75;;;15.20;99.90;;;;;;5058975;28;20494;-79
2023/06/01 08:30:59;;;;;;;6.93;4.70;;;15.20;99.90;;;;;;5055976;28;20094;-78
2023/06/01 08:33:26;;;;;;;7.97;3.75;;;15.20;99.90;;;;;;5054041;28;20040;-78
2023/06/01 08:35:55;;;;;;;9.23;4.00;;;15.30;99.90;;;;;;5054927;28;20036;-79
2023/06/01 08:38:21;;;;;;;9.07;4.18;;;15.50;99.90;;;;;;5053777;28;20033;-78
2023/06/01 08:40:47;;;;;;;6.97;4.13;;;15.50;99.90;;;;;;5086181;28;20542;-79
2023/06/01 08:43:19;;;;;;;7.22;4.10;;;15.60;99.90;;;;;;5049186;28;20039;-78
2023/06/01 08:45:49;;;;;;;11.77;4.78;;;15.50;99.90;;;;;;5054883;28;20043;-79
2023/06/01 08:48:17;;;;;;;7.47;4.55;;;15.30;99.90;;;;;;5060619;28;20036;-79
2023/06/01 08:50:48;;;;;;;7.95;4.45;;;15.30;99.90;;;;;;5062343;28;20037;-79
2023/06/01 08:53:18;;;;;;;9.60;4.82;;;15.40;99.90;;;;;;5061328;28;20063;-79
2023/06/01 08:55:46;;;;;;;8.43;4.60;;;15.60;99.90;;;;;;5054723;28;20054;-79
2023/06/01 08:58:14;;;;;;;7.28;4.43;;;15.60;99.90;;;;;;5056406;28;20078;-79
2023/06/01 09:00:40;;;;;;;7.75;4.63;;;15.70;99.90;;;;;;5056680;28;20040;-78
2023/06/01 09:03:07;;;;;;;8.32;4.30;;;15.70;99.90;;;;;;5057203;28;20048;-79
2023/06/01 09:05:32;;;;;;;6.05;4.13;;;15.70;99.90;;;;;;5054686;28;20084;-78
2023/06/01 09:07:58;;;;;;;6.50;4.63;;;15.70;99.90;;;;;;5069942;28;20028;-79
2023/06/01 09:10:27;;;;;;;8.00;4.18;;;15.80;99.90;;;;;;5060023;28;20040;-78
2023/06/01 09:12:54;;;;;;;7.88;4.47;;;15.90;99.90;;;;;;5077078;28;20043;-79
2023/06/01 09:15:23;;;;;;;5.72;3.88;;;15.90;99.90;;;;;;5060239;28;20044;-79
2023/06/01 09:17:51;;;;;;;9.57;4.07;;;15.90;99.90;;;;;;5049980;28;20055;-79
2023/06/01 09:20:25;;;;;;;6.28;4.28;;;15.90;99.90;;;;;;5058843;28;20132;-79
2023/06/01 09:22:52;;;;;;;8.45;4.60;;;16.00;99.90;;;;;;5039981;28;20105;-78
2023/06/01 09:25:27;;;;;;;6.75;4.10;;;16.10;99.90;;;;;;5040258;28;20048;-79
2023/06/01 09:27:55;;;;;;;5.43;3.55;;;16.20;99.90;;;;;;5073497;28;20047;-79
2023/06/01 09:30:23;;;;;;;5.82;3.40;;;16.30;99.90;;;;;;5065948;28;20059;-78
2023/06/01 09:33:06;;;;;;;6.07;3.03;;;16.30;99.90;;;;;;5085180;28;20421;-78
2023/06/01 09:35:58;;;;;;;7.70;3.43;;;16.30;99.90;;;;;;5060123;28;20093;-79
2023/06/01 09:38:27;;;;;;;7.78;4.15;;;16.40;99.90;;;;;;5055197;28;20318;-79
2023/06/01 09:41:01;;;;;;;6.60;3.78;;;16.20;99.90;;;;;;5093248;28;20032;-79
2023/06/01 09:43:27;;;;;;;5.50;3.50;;;16.00;99.90;;;;;;5059972;28;20579;-78
2023/06/01 09:46:11;;;;;;;7.30;3.83;;;16.10;99.90;;;;;;5059595;28;20046;-79
2023/06/01 09:48:37;;;;;;;6.05;3.80;;;16.10;99.90;;;;;;5058319;28;20039;-79
2023/06/01 09:51:03;;;;;;;7.90;3.80;;;16.10;99.90;;;;;;5059420;28;20040;-79
2023/06/01 09:53:39;;;;;;;6.03;3.67;;;16.20;99.90;;;;;;5059448;28;20048;-78
2023/06/01 09:56:05;;;;;;;6.20;3.88;;;16.30;99.90;;;;;;5059348;28;20514;-78
2023/06/01 09:58:32;;;;;;;5.55;3.70;;;16.30;99.90;;;;;;5057627;28;20071;-79
2023/06/01 10:00:59;;;;;;;4.68;3.15;;;16.50;99.90;;;;;;5056896;28;20035;-79
2023/06/01 10:03:26;;;;;;;5.80;3.20;;;16.60;99.90;;;;;;5060091;28;20424;-79
2023/06/01 10:05:52;;;;;;;4.53;3.00;;;16.60;99.90;;;;;;5059219;28;20036;-78
2023/06/01 10:08:19;;;;;;;4.53;2.50;;;16.60;99.90;;;;;;5069934;28;20401;-78
2023/06/01 10:10:48;;;;;;;5.63;2.80;;;16.50;99.90;;;;;;5075092;28;20070;-79
2023/06/01 10:13:15;;;;;;;3.78;2.35;;;16.40;99.90;;;;;;5060263;28;20072;-78
2023/06/01 10:15:41;;;;;;;3.28;2.03;;;16.40;99.90;;;;;;5067571;28;20070;-78
2023/06/01 10:18:07;;;;;;;3.08;2.15;;;16.30;99.90;;;;;;5067855;28;20040;-78
2023/06/01 10:20:35;;;;;;;3.35;2.28;;;16.20;99.90;;;;;;5065711;28;20043;-79
2023/06/01 10:23:02;;;;;;;5.32;2.78;;;16.00;99.90;;;;;;5051529;28;20458;-78
2023/06/01 10:25:42;;;;;;;5.72;3.17;;;15.90;99.90;;;;;;5060924;28;20134;-80
2023/06/01 10:28:11;;;;;;;7.45;4.28;;;15.70;99.90;;;;;;5063946;28;20040;-80
2023/06/01 10:30:36;;;;;;;5.63;4.00;;;15.50;99.90;;;;;;5059493;28;20493;-79
2023/06/01 10:33:03;;;;;;;6.35;3.97;;;15.40;99.90;;;;;;5077293;28;20043;-80
2023/06/01 10:35:28;;;;;;;4.97;3.53;;;15.30;99.90;;;;;;5061780;28;20048;-80
2023/06/01 10:38:09;;;;;;;5.28;3.83;;;15.30;99.90;;;;;;5060104;28;20033;-79
2023/06/01 10:40:42;;;;;;;5.63;3.45;;;15.40;99.90;;;;;;5071546;28;20404;-79
2023/06/01 10:43:28;;;;;;;;;;;15.30;99.90;;;;;;5062098;28;20044;-79
2023/06/01 10:45:54;;;;;;;6.30;3.58;;;15.30;99.90;;;;;;5064979;28;19923;-79
2023/06/01 10:48:53;;;;;;;7.25;4.30;;;15.50;99.90;;;;;;5096060;28;20043;-80
2023/06/01 10:51:21;;;;;;;7.20;5.10;;;15.50;99.90;;;;;;5069895;28;20036;-79
2023/06/01 10:53:47;;;;;;;7.47;4.60;;;15.40;99.90;;;;;;5065204;28;20075;-79
2023/06/01 10:56:23;;;;;;;6.55;4.13;;;15.30;99.90;;;;;;5066786;28;20071;-79
2023/06/01 10:59:08;;;;;;;8.45;4.53;;;15.40;99.90;;;;;;5063062;28;20533;-80
2023/06/01 11:01:39;;;;;;;9.45;5.43;;;15.50;99.90;;;;;;5078335;28;20043;-79
2023/06/01 11:04:05;;;;;;;8.07;4.88;;;15.40;99.90;;;;;;5069064;28;20048;-79
2023/06/01 11:06:40;;;;;;;9.15;5.18;;;15.30;99.90;;;;;;5062592;28;20490;-79
2023/06/01 11:09:10;;;;;;;6.55;4.47;;;15.30;99.90;;;;;;5062282;28;20040;-79
2023/06/01 11:11:50;;;;;;;8.10;5.43;;;15.30;99.90;;;;;;5062543;28;20035;-79
2023/06/01 11:14:24;;;;;;;10.75;5.30;;;15.40;99.90;;;;;;5075669;28;20044;-79
2023/06/01 11:16:52;;;;;;;8.27;4.90;;;15.40;99.90;;;;;;5060094;28;20032;-80
2023/06/01 11:19:24;;;;;;;9.45;4.53;;;15.40;99.90;;;;;;5082880;28;20040;-79
2023/06/01 11:22:04;;;;;;;8.47;4.77;;;15.50;99.90;;;;;;5066681;28;20044;-79
2023/06/01 11:24:37;;;;;;;7.90;4.72;;;15.50;99.90;;;;;;5061452;28;20036;-79
2023/06/01 11:27:10;;;;;;;9.63;4.35;;;15.60;99.90;;;;;;5062527;28;20038;-79
2023/06/01 11:29:36;;;;;;;10.07;4.93;;;15.80;99.90;;;;;;5054827;28;20048;-79
2023/06/01 11:32:07;;;;;;;9.68;4.65;;;15.90;99.90;;;;;;5038007;28;20437;-79
2023/06/01 11:34:45;;;;;;;8.77;4.60;;;16.00;99.90;;;;;;5058421;28;20032;-78
2023/06/01 11:37:15;;;;;;;11.25;4.57;;;16.00;99.90;;;;;;5065102;28;20044;-79
2023/06/01 11:39:42;;;;;;;8.68;4.55;;;16.10;99.90;;;;;;5068002;28;20032;-78
2023/06/01 11:42:11;;;;;;;9.65;4.20;;;16.10;99.90;;;;;;5066523;28;20108;-80
2023/06/01 11:44:39;;;;;;;10.07;4.10;;;16.00;99.90;;;;;;5074275;28;20503;-79
2023/06/01 11:47:06;;;;;;;11.32;4.78;;;15.90;99.90;;;;;;5072597;28;20112;-79
2023/06/01 11:49:41;;;;;;;10.48;4.20;;;15.90;99.90;;;;;;5058694;28;20444;-78
2023/06/01 11:52:09;;;;;;;9.23;4.10;;;15.80;99.90;;;;;;5057853;28;20036;-78
2023/06/01 11:54:36;;;;;;;8.35;3.88;;;15.80;99.90;;;;;;5057221;28;20047;-80
2023/06/01 11:57:02;;;;;;;9.82;3.72;;;16.00;99.90;;;;;;5087909;28;20043;-78
2023/06/01 11:59:43;;;;;;;7.10;3.70;;;16.00;99.90;;;;;;5046318;28;20048;-79
2023/06/01 12:02:24;;;;;;;7.53;3.90;;;16.10;99.90;;;;;;5057541;28;20515;-79
2023/06/01 12:05:08;;;;;;;9.88;4.15;;;16.40;99.90;;;;;;5057268;28;20177;-79
2023/06/01 12:07:49;;;;;;;7.30;3.75;;;16.60;99.90;;;;;;5056109;28;20459;-79
2023/06/01 12:10:17;;;;;;;7.53;3.80;;;16.90;99.90;;;;;;5057287;28;20044;-79
2023/06/01 12:12:46;;;;;;;9.07;4.18;;;17.00;99.90;;;;;;5057106;28;20059;-78
2023/06/01 12:15:18;;;;;;;10.65;4.45;;;17.00;99.90;;;;;;5057063;28;20036;-78
2023/06/01 12:17:55;;;;;;;8.90;3.50;;;17.10;99.90;;;;;;5067203;28;20505;-79
2023/06/01 12:20:36;;;;;;;7.13;3.20;;;17.10;99.90;;;;;;5054206;28;20063;-79
2023/06/01 12:23:24;;;;;;;6.93;3.83;;;17.20;99.90;;;;;;5055967;28;20043;-80
2023/06/01 12:25:55;;;;;;;10.18;4.13;;;17.10;99.90;;;;;;5062138;28;20080;-79
2023/06/01 12:28:29;;;;;;;9.02;4.05;;;17.10;99.90;;;;;;5068500;28;20494;-79
2023/06/01 12:31:13;;;;;;;10.57;4.40;;;16.90;99.90;;;;;;5053752;28;20044;-79
2023/06/01 12:33:40;;;;;;;25.02;4.82;;;17.00;99.90;;;;;;5036926;28;20135;-79
2023/06/01 12:36:08;;;;;;;7.38;4.25;;;17.20;99.90;;;;;;5036691;28;20521;-79
2023/06/01 12:38:51;;;;;;;8.88;4.32;;;17.40;99.90;;;;;;5046599;28;20086;-79
2023/06/01 12:41:18;;;;;;;7.32;4.45;;;17.70;99.90;;;;;;5048777;28;20044;-79
2023/06/01 12:43:48;;;;;;;9.85;4.40;;;18.10;99.90;;;;;;5055103;28;20040;-79
2023/06/01 12:46:25;;;;;;;8.73;4.13;;;18.10;99.90;;;;;;5057341;28;20033;-79
2023/06/01 12:48:53;;;;;;;10.07;4.75;;;18.10;99.90;;;;;;5050658;28;20109;-79